createdAt,value
2022-12-01T00:00:15.487Z,23.13
2022-12-01T00:03:09.371Z,24.33
2022-12-01T00:05:41.610Z,22.10
2022-12-01T00:08:30.126Z,24.03
2022-12-01T00:11:26.376Z,22.63
2022-12-01T00:14:35.020Z,23.17
2022-12-01T00:17:07.821Z,24.50
2022-12-01T00:19:43.145Z,23.20
2022-12-01T00:22:12.280Z,23.53
2022-12-01T00:24:45.427Z,23.83
2022-12-01T00:27:18.541Z,23.60
2022-12-01T00:30:11.406Z,24.33
2022-12-01T00:32:44.576Z,22.97
2022-12-01T00:35:15.595Z,23.03
2022-12-01T00:37:47.437Z,24.17
2022-12-01T00:40:22.170Z,23.80
2022-12-01T00:43:01.433Z,23.57
2022-12-01T00:45:56.678Z,23.37
2022-12-01T00:48:28.776Z,24.43
2022-12-01T00:51:02.989Z,23.73
2022-12-01T00:53:34.156Z,24.17
2022-12-01T00:56:23.291Z,24.10
2022-12-01T00:58:54.284Z,24.97
2022-12-01T01:01:22.935Z,25.73
2022-12-01T01:03:52.261Z,25.53
2022-12-01T01:06:43.208Z,25.57
2022-12-01T01:09:15.550Z,25.27
2022-12-01T01:12:24.059Z,26.10
2022-12-01T01:15:13.926Z,26.20
2022-12-01T01:17:46.002Z,26.03
2022-12-01T01:20:37.838Z,26.73
2022-12-01T01:23:16.048Z,25.07
2022-12-01T01:25:54.796Z,26.60
2022-12-01T01:28:48.530Z,27.10
2022-12-01T01:31:20.562Z,25.00
2022-12-01T01:34:15.325Z,25.47
2022-12-01T01:37:07.291Z,26.13
2022-12-01T01:39:38.959Z,26.33
2022-12-01T01:42:33.480Z,25.63
2022-12-01T01:45:04.762Z,24.57
2022-12-01T01:47:40.078Z,26.87
2022-12-01T01:50:13.262Z,26.63
2022-12-01T01:52:48.070Z,26.07
2022-12-01T01:56:04.908Z,26.67
2022-12-01T01:58:35.031Z,26.67
2022-12-01T02:01:08.523Z,27.53
2022-12-01T02:04:05.870Z,27.43
2022-12-01T02:06:36.166Z,27.10
2022-12-01T02:09:29.249Z,28.03
2022-12-01T02:12:15.424Z,26.33
2022-12-01T02:15:08.920Z,28.50
2022-12-01T02:17:47.322Z,26.23
2022-12-01T02:21:00.728Z,26.10
2022-12-01T02:24:04.270Z,27.87
2022-12-01T02:26:47.056Z,27.60
2022-12-01T02:29:58.380Z,29.23
2022-12-01T02:32:35.642Z,27.83
2022-12-01T02:35:17.818Z,27.40
2022-12-01T02:38:15.604Z,27.33
2022-12-01T02:40:48.624Z,28.97
2022-12-01T02:43:30.376Z,27.30
2022-12-01T02:46:04.212Z,28.60
2022-12-01T02:48:57.334Z,26.30
2022-12-01T02:51:31.241Z,26.57
2022-12-01T02:54:05.252Z,27.20
2022-12-01T02:56:34.653Z,27.97
2022-12-01T02:59:03.338Z,29.63
2022-12-01T03:02:26.380Z,29.50
2022-12-01T03:05:02.599Z,27.93
2022-12-01T03:07:49.260Z,26.40
2022-12-01T03:10:39.850Z,28.20
2022-12-01T03:13:20.455Z,27.53
2022-12-01T03:15:58.657Z,27.40
2022-12-01T03:18:35.021Z,27.93
2022-12-01T03:21:12.702Z,28.93
2022-12-01T03:24:03.741Z,27.63
2022-12-01T03:26:37.010Z,27.87
2022-12-01T03:29:13.193Z,28.23
2022-12-01T03:32:06.920Z,27.03
2022-12-01T03:34:41.130Z,28.93
2022-12-01T03:37:15.488Z,29.67
2022-12-01T03:39:47.003Z,28.37
2022-12-01T03:42:19.424Z,27.23
2022-12-01T03:44:50.930Z,28.87
2022-12-01T03:47:23.421Z,28.17
2022-12-01T03:50:14.223Z,30.30
2022-12-01T03:52:54.348Z,28.50
2022-12-01T03:55:27.946Z,27.10
2022-12-01T03:58:02.455Z,29.33
2022-12-01T04:00:34.366Z,28.77
2022-12-01T04:03:09.969Z,27.20
2022-12-01T04:05:38.850Z,28.43
2022-12-01T04:08:10.130Z,28.53
2022-12-01T04:10:40.755Z,29.57
2022-12-01T04:13:16.351Z,28.83
2022-12-01T04:15:47.326Z,27.63
2022-12-01T04:18:17.133Z,27.60
2022-12-01T04:20:47.475Z,29.67
2022-12-01T04:23:33.293Z,29.80
2022-12-01T04:26:14.228Z,29.60
2022-12-01T04:28:43.727Z,27.63
2022-12-01T04:31:13.440Z,27.70
2022-12-01T04:33:43.227Z,28.07
2022-12-01T04:36:13.606Z,28.10
2022-12-01T04:38:45.605Z,27.93
2022-12-01T04:41:40.071Z,28.73
2022-12-01T04:44:09.610Z,29.07
2022-12-01T04:46:39.906Z,28.80
2022-12-01T04:49:08.602Z,29.43
2022-12-01T04:51:39.888Z,27.93
2022-12-01T04:54:10.844Z,29.30
2022-12-01T04:56:40.632Z,28.97
2022-12-01T04:59:09.240Z,30.73
2022-12-01T05:01:37.835Z,28.97
2022-12-01T05:04:27.794Z,28.23
2022-12-01T05:06:58.871Z,28.73
2022-12-01T05:09:48.892Z,27.93
2022-12-01T05:12:22.517Z,28.27
2022-12-01T05:15:11.707Z,27.43
2022-12-01T05:17:41.149Z,28.20
2022-12-01T05:20:37.573Z,29.30
2022-12-01T05:23:12.284Z,27.50
2022-12-01T05:25:47.033Z,29.27
2022-12-01T05:28:17.961Z,27.83
2022-12-01T05:31:07.455Z,29.40
2022-12-01T05:33:37.487Z,29.73
2022-12-01T05:36:09.212Z,28.13
2022-12-01T05:38:37.625Z,27.50
2022-12-01T05:41:33.137Z,29.73
2022-12-01T05:44:02.162Z,27.60
2022-12-01T05:46:31.979Z,29.37
2022-12-01T05:49:01.895Z,27.67
2022-12-01T05:51:30.405Z,27.23
2022-12-01T05:54:02.163Z,29.00
2022-12-01T05:56:32.167Z,29.13
2022-12-01T05:59:00.956Z,30.20
2022-12-01T06:01:29.695Z,29.40
2022-12-01T06:03:57.693Z,29.10
2022-12-01T06:06:26.093Z,28.27
2022-12-01T06:08:54.296Z,29.63
2022-12-01T06:11:22.406Z,29.47
2022-12-01T06:13:51.849Z,29.07
2022-12-01T06:16:20.385Z,30.57
2022-12-01T06:18:48.525Z,31.07
2022-12-01T06:21:16.670Z,29.77
2022-12-01T06:23:45.340Z,30.10
2022-12-01T06:26:13.931Z,30.07
2022-12-01T06:28:41.945Z,28.37
2022-12-01T06:31:11.511Z,27.63
2022-12-01T06:33:39.635Z,28.53
2022-12-01T06:36:08.819Z,29.77
2022-12-01T06:38:38.323Z,28.70
2022-12-01T06:41:06.831Z,30.20
2022-12-01T06:43:37.578Z,28.63
2022-12-01T06:46:06.367Z,29.60
2022-12-01T06:48:35.948Z,28.80
2022-12-01T06:51:04.637Z,29.47
2022-12-01T06:53:32.701Z,31.10
2022-12-01T06:56:01.972Z,30.37
2022-12-01T06:58:30.673Z,31.47
2022-12-01T07:00:59.801Z,29.70
2022-12-01T07:03:28.323Z,29.90
2022-12-01T07:05:59.014Z,29.00
2022-12-01T07:08:28.457Z,31.27
2022-12-01T07:11:00.439Z,31.07
2022-12-01T07:13:33.378Z,30.30
2022-12-01T07:16:03.108Z,29.10
2022-12-01T07:18:31.522Z,28.93
2022-12-01T07:21:03.872Z,29.93
2022-12-01T07:23:32.345Z,29.17
2022-12-01T07:26:02.033Z,30.97
2022-12-01T07:28:30.523Z,28.90
2022-12-01T07:31:04.293Z,29.97
2022-12-01T07:33:32.642Z,29.90
2022-12-01T07:36:02.313Z,28.03
2022-12-01T07:38:30.925Z,30.67
2022-12-01T07:41:03.702Z,29.20
2022-12-01T07:43:32.462Z,30.20
2022-12-01T07:46:06.530Z,31.03
2022-12-01T07:48:35.089Z,30.50
2022-12-01T07:51:05.001Z,29.50
2022-12-01T07:53:33.260Z,29.77
2022-12-01T07:56:05.678Z,30.20
2022-12-01T07:58:57.994Z,29.70
2022-12-01T08:01:46.255Z,28.77
2022-12-01T08:04:14.378Z,31.37
2022-12-01T08:06:43.887Z,31.27
2022-12-01T08:09:12.149Z,30.67
2022-12-01T08:11:40.058Z,30.50
2022-12-01T08:14:08.166Z,31.13
2022-12-01T08:16:36.696Z,31.70
2022-12-01T08:19:04.742Z,31.60
2022-12-01T08:21:32.724Z,31.03
2022-12-01T08:24:02.046Z,30.53
2022-12-01T08:26:30.117Z,32.40
2022-12-01T08:28:58.994Z,30.43
2022-12-01T08:31:29.430Z,30.83
2022-12-01T08:33:57.937Z,30.00
2022-12-01T08:36:26.666Z,30.40
2022-12-01T08:38:56.603Z,31.10
2022-12-01T08:41:27.036Z,30.83
2022-12-01T08:43:59.165Z,28.37
2022-12-01T08:46:29.453Z,30.30
2022-12-01T08:48:57.968Z,30.43
2022-12-01T08:51:27.160Z,31.67
2022-12-01T08:53:57.698Z,29.13
2022-12-01T08:56:30.327Z,29.77
2022-12-01T08:58:58.657Z,30.73
2022-12-01T09:01:26.964Z,29.93
2022-12-01T09:04:07.711Z,30.63
2022-12-01T09:06:39.569Z,28.90
2022-12-01T09:09:08.175Z,30.40
2022-12-01T09:11:38.004Z,31.17
2022-12-01T09:14:06.545Z,30.70
2022-12-01T09:16:34.812Z,30.87
2022-12-01T09:19:03.516Z,30.50
2022-12-01T09:21:33.732Z,29.90
2022-12-01T09:24:02.545Z,30.77
2022-12-01T09:26:31.366Z,30.17
2022-12-01T09:29:03.374Z,29.67
2022-12-01T09:31:32.172Z,32.17
2022-12-01T09:34:03.010Z,30.30
2022-12-01T09:36:33.231Z,29.97
2022-12-01T09:39:02.368Z,30.00
2022-12-01T09:41:35.306Z,32.50
2022-12-01T09:44:15.137Z,30.77
2022-12-01T09:46:47.848Z,30.33
2022-12-01T09:49:22.983Z,31.87
2022-12-01T09:51:52.581Z,30.17
2022-12-01T09:54:21.194Z,31.80
2022-12-01T09:56:53.539Z,30.50
2022-12-01T09:59:26.360Z,30.57
2022-12-01T10:01:59.434Z,31.37
2022-12-01T10:04:37.400Z,30.47
2022-12-01T10:07:11.838Z,31.37
2022-12-01T10:09:45.931Z,31.20
2022-12-01T10:12:17.388Z,30.13
2022-12-01T10:14:50.115Z,31.87
2022-12-01T10:17:27.174Z,31.00
2022-12-01T10:20:03.725Z,28.93
2022-12-01T10:22:48.750Z,29.53
2022-12-01T10:25:23.032Z,28.70
2022-12-01T10:28:13.739Z,28.03
2022-12-01T10:30:51.234Z,27.77
2022-12-01T10:33:26.058Z,28.23
2022-12-01T10:35:55.479Z,30.40
2022-12-01T10:38:28.947Z,29.67
2022-12-01T10:41:01.345Z,28.17
2022-12-01T10:43:34.687Z,29.20
2022-12-01T10:46:25.187Z,28.40
2022-12-01T10:48:55.898Z,30.17
2022-12-01T10:51:25.167Z,29.37
2022-12-01T10:54:00.679Z,28.37
2022-12-01T10:56:29.671Z,28.27
2022-12-01T10:59:02.761Z,29.50
2022-12-01T11:01:35.868Z,30.27
2022-12-01T11:04:08.599Z,28.17
2022-12-01T11:06:38.422Z,29.00
2022-12-01T11:09:22.933Z,28.83
2022-12-01T11:11:58.062Z,28.87
2022-12-01T11:14:34.811Z,28.77
2022-12-01T11:17:28.409Z,29.00
2022-12-01T11:20:17.978Z,27.83
2022-12-01T11:22:46.183Z,27.80
2022-12-01T11:25:21.759Z,29.17
2022-12-01T11:27:54.164Z,28.80
2022-12-01T11:30:24.560Z,28.27
2022-12-01T11:32:58.260Z,28.40
2022-12-01T11:35:30.622Z,30.20
2022-12-01T11:38:28.419Z,28.60
2022-12-01T11:40:51.050Z,28.07
2022-12-01T11:43:26.020Z,28.30
2022-12-01T11:45:55.646Z,28.93
2022-12-01T11:48:30.667Z,27.90
2022-12-01T11:51:05.570Z,27.40
2022-12-01T11:53:36.216Z,27.77
2022-12-01T11:56:20.890Z,28.00
2022-12-01T11:58:50.609Z,27.30
2022-12-01T12:01:32.284Z,27.80
2022-12-01T12:04:11.420Z,27.30
2022-12-01T12:06:47.315Z,26.67
2022-12-01T12:09:30.169Z,26.60
2022-12-01T12:12:06.414Z,25.90
2022-12-01T12:14:48.569Z,26.13
2022-12-01T12:17:28.773Z,25.83
2022-12-01T12:20:26.948Z,25.57
2022-12-01T12:23:10.058Z,24.90
2022-12-01T12:25:54.340Z,23.87
2022-12-01T12:28:37.039Z,21.93
2022-12-01T12:31:13.615Z,23.53
2022-12-01T12:33:55.904Z,22.07
2022-12-01T12:36:34.456Z,22.97
2022-12-01T12:39:17.309Z,23.33
2022-12-01T12:41:48.455Z,22.77
2022-12-01T12:44:35.371Z,20.63
2022-12-01T12:47:14.383Z,19.60
2022-12-01T12:49:46.191Z,20.10
2022-12-01T12:52:18.369Z,22.27
2022-12-01T12:54:53.444Z,22.30
2022-12-01T12:57:30.030Z,21.73
2022-12-01T13:00:03.504Z,22.70
2022-12-01T13:02:37.946Z,21.33
2022-12-01T13:05:14.075Z,21.70
2022-12-01T13:07:48.645Z,20.87
2022-12-01T13:10:27.192Z,19.33
2022-12-01T13:13:01.436Z,20.67
2022-12-01T13:15:31.579Z,19.00
2022-12-01T13:18:04.734Z,18.77
2022-12-01T13:20:37.895Z,19.60
2022-12-01T13:23:07.845Z,18.50
2022-12-01T13:25:40.468Z,18.33
2022-12-01T13:28:18.428Z,18.53
2022-12-01T13:31:03.078Z,18.17
2022-12-01T13:33:32.175Z,19.27
2022-12-01T13:36:30.303Z,19.07
2022-12-01T13:38:59.064Z,18.20
2022-12-01T13:41:33.113Z,19.50
2022-12-01T13:44:07.490Z,20.13
2022-12-01T13:46:52.857Z,20.17
2022-12-01T13:49:42.296Z,19.80
2022-12-01T13:52:31.390Z,21.87
2022-12-01T13:55:27.272Z,20.07
2022-12-01T13:58:26.821Z,20.43
2022-12-01T14:00:54.892Z,20.10
2022-12-01T14:03:41.520Z,20.60
2022-12-01T14:06:21.931Z,19.70
2022-12-01T14:08:51.123Z,19.53
2022-12-01T14:11:23.424Z,20.83
2022-12-01T14:13:57.130Z,20.33
2022-12-01T14:16:26.216Z,19.57
2022-12-01T14:18:57.116Z,17.60
2022-12-01T14:21:47.899Z,19.40
2022-12-01T14:24:25.232Z,18.23
2022-12-01T14:26:54.138Z,17.57
2022-12-01T14:29:38.380Z,18.13
2022-12-01T14:32:27.228Z,18.07
2022-12-01T14:34:59.652Z,17.60
2022-12-01T14:37:36.738Z,18.07
2022-12-01T14:40:09.403Z,16.60
2022-12-01T14:42:58.419Z,15.03
2022-12-01T14:45:34.132Z,15.93
2022-12-01T14:48:05.171Z,15.27
2022-12-01T14:50:45.061Z,16.90
2022-12-01T14:53:22.619Z,16.43
2022-12-01T14:55:56.413Z,15.60
2022-12-01T14:58:28.426Z,15.47
2022-12-01T15:01:05.782Z,15.50
2022-12-01T15:03:40.538Z,14.43
2022-12-01T15:06:09.806Z,14.23
2022-12-01T15:08:45.874Z,15.13
2022-12-01T15:11:25.641Z,14.23
2022-12-01T15:13:56.199Z,14.63
2022-12-01T15:16:27.926Z,14.43
2022-12-01T15:18:56.442Z,13.27
2022-12-01T15:21:27.302Z,13.83
2022-12-01T15:23:57.855Z,13.73
2022-12-01T15:26:28.630Z,15.10
2022-12-01T15:29:16.117Z,15.37
2022-12-01T15:31:48.043Z,14.03
2022-12-01T15:34:18.797Z,15.20
2022-12-01T15:36:48.605Z,15.77
2022-12-01T15:39:19.222Z,18.13
2022-12-01T15:41:54.131Z,17.20
2022-12-01T15:44:27.877Z,16.00
2022-12-01T15:46:58.436Z,14.90
2022-12-01T15:49:29.997Z,14.43
2022-12-01T15:52:08.424Z,15.17
2022-12-01T15:54:40.010Z,15.83
2022-12-01T15:57:09.262Z,15.10
2022-12-01T15:59:40.888Z,15.27
2022-12-01T16:02:24.951Z,14.90
2022-12-01T16:05:02.275Z,16.10
2022-12-01T16:08:11.059Z,14.30
2022-12-01T16:10:35.504Z,14.83
2022-12-01T16:13:39.303Z,14.60
2022-12-01T16:16:32.071Z,14.43
2022-12-01T16:19:03.418Z,15.33
2022-12-01T16:21:36.129Z,15.80
2022-12-01T16:24:06.742Z,16.87
2022-12-01T16:26:35.659Z,16.73
2022-12-01T16:29:03.894Z,15.73
2022-12-01T16:31:34.090Z,16.10
2022-12-01T16:34:18.495Z,16.70
2022-12-01T16:36:53.501Z,18.33
2022-12-01T16:39:21.786Z,16.90
2022-12-01T16:41:49.985Z,17.50
2022-12-01T16:44:28.418Z,18.37
2022-12-01T16:46:56.976Z,17.60
2022-12-01T16:49:26.502Z,18.37
2022-12-01T16:51:56.918Z,16.60
2022-12-01T16:54:26.673Z,17.73
2022-12-01T16:56:55.932Z,18.20
2022-12-01T16:59:24.830Z,18.23
2022-12-01T17:01:53.060Z,17.47
2022-12-01T17:04:21.868Z,20.00
2022-12-01T17:06:51.982Z,36.37
2022-12-01T17:09:20.426Z,25.50
2022-12-01T17:11:50.614Z,22.07
2022-12-01T17:14:18.542Z,20.40
2022-12-01T17:16:47.460Z,20.90
2022-12-01T17:19:16.530Z,19.80
2022-12-01T17:21:45.425Z,20.40
2022-12-01T17:24:19.156Z,18.13
2022-12-01T17:26:47.809Z,18.33
2022-12-01T17:29:15.811Z,18.70
2022-12-01T17:31:44.198Z,18.77
2022-12-01T17:34:14.149Z,17.43
2022-12-01T17:36:43.256Z,17.77
2022-12-01T17:39:11.497Z,17.87
2022-12-01T17:41:42.260Z,18.13
2022-12-01T17:44:10.698Z,18.23
2022-12-01T17:46:38.991Z,17.93
2022-12-01T17:49:09.806Z,18.67
2022-12-01T17:51:38.658Z,17.57
2022-12-01T17:54:06.809Z,37.53
2022-12-01T17:56:35.508Z,29.97
2022-12-01T17:59:06.116Z,23.47
2022-12-01T18:01:34.464Z,21.67
2022-12-01T18:04:04.648Z,21.13
2022-12-01T18:06:33.245Z,19.90
2022-12-01T18:09:01.874Z,20.07
2022-12-01T18:11:31.182Z,19.70
2022-12-01T18:14:02.584Z,19.23
2022-12-01T18:16:36.586Z,19.90
2022-12-01T18:19:05.359Z,20.37
2022-12-01T18:21:33.794Z,20.77
2022-12-01T18:24:04.097Z,20.43
2022-12-01T18:26:34.015Z,20.70
2022-12-01T18:29:04.868Z,20.23
2022-12-01T18:31:36.195Z,38.83
2022-12-01T18:34:07.100Z,25.00
2022-12-01T18:36:37.972Z,26.77
2022-12-01T18:39:08.924Z,22.87
2022-12-01T18:41:37.803Z,20.63
2022-12-01T18:44:06.779Z,21.97
2022-12-01T18:46:36.477Z,22.47
2022-12-01T18:49:25.073Z,20.47
2022-12-01T18:51:54.005Z,21.40
2022-12-01T18:54:22.208Z,19.37
2022-12-01T18:56:55.307Z,20.37
2022-12-01T18:59:23.815Z,20.20
2022-12-01T19:01:54.068Z,20.80
2022-12-01T19:04:22.659Z,21.23
2022-12-01T19:06:50.968Z,22.07
2022-12-01T19:09:19.690Z,21.07
2022-12-01T19:11:48.209Z,23.17
2022-12-01T19:14:18.904Z,22.30
2022-12-01T19:16:48.436Z,21.77
2022-12-01T19:19:43.674Z,23.73
2022-12-01T19:22:17.899Z,22.20
2022-12-01T19:24:50.229Z,23.10
2022-12-01T19:27:22.028Z,22.63
2022-12-01T19:29:57.021Z,22.07
2022-12-01T19:32:26.923Z,22.07
2022-12-01T19:35:02.390Z,21.53
2022-12-01T19:37:31.668Z,18.50
2022-12-01T19:40:20.919Z,20.47
2022-12-01T19:42:50.687Z,19.40
2022-12-01T19:45:21.497Z,19.37
2022-12-01T19:47:53.726Z,19.10
2022-12-01T19:50:24.463Z,20.33
2022-12-01T19:53:17.079Z,19.97
2022-12-01T19:55:45.982Z,19.47
2022-12-01T19:58:15.944Z,19.37
2022-12-01T20:00:48.138Z,20.10
2022-12-01T20:03:17.350Z,19.13
2022-12-01T20:05:47.669Z,18.60
2022-12-01T20:08:36.337Z,19.27
2022-12-01T20:11:25.418Z,18.57
2022-12-01T20:13:54.821Z,19.17
2022-12-01T20:16:25.893Z,19.13
2022-12-01T20:18:55.792Z,18.03
2022-12-01T20:21:31.133Z,17.90
2022-12-01T20:24:02.411Z,17.70
2022-12-01T20:26:34.039Z,18.97
2022-12-01T20:29:04.388Z,22.80
2022-12-01T20:31:36.096Z,19.30
2022-12-01T20:34:11.377Z,18.60
2022-12-01T20:36:52.044Z,18.30
2022-12-01T20:39:23.196Z,17.93
2022-12-01T20:41:55.192Z,18.27
2022-12-01T20:44:29.432Z,17.60
2022-12-01T20:47:27.554Z,19.60
2022-12-01T20:50:00.760Z,18.63
2022-12-01T20:52:31.306Z,18.47
2022-12-01T20:55:04.838Z,17.83
2022-12-01T20:57:37.998Z,17.83
2022-12-01T21:00:13.219Z,18.20
2022-12-01T21:03:04.026Z,18.97
2022-12-01T21:05:35.685Z,18.33
2022-12-01T21:08:05.884Z,20.47
2022-12-01T21:10:36.518Z,17.60
2022-12-01T21:13:37.464Z,17.80
2022-12-01T21:16:13.841Z,17.73
2022-12-01T21:18:51.255Z,17.67
2022-12-01T21:21:24.611Z,17.40
2022-12-01T21:24:11.356Z,17.70
2022-12-01T21:26:40.992Z,18.03
2022-12-01T21:29:20.600Z,21.43
2022-12-01T21:32:14.829Z,17.47
2022-12-01T21:34:44.924Z,17.93
2022-12-01T21:37:26.575Z,15.93
2022-12-01T21:39:58.890Z,18.20
2022-12-01T21:42:29.464Z,18.53
2022-12-01T21:45:50.458Z,17.70
2022-12-01T21:48:41.016Z,16.83
2022-12-01T21:51:20.435Z,17.43
2022-12-01T21:53:52.350Z,17.63
2022-12-01T21:56:25.032Z,18.43
2022-12-01T21:58:59.064Z,15.97
2022-12-01T22:01:31.868Z,17.47
2022-12-01T22:04:21.765Z,17.40
2022-12-01T22:06:53.739Z,18.17
2022-12-01T22:09:46.674Z,19.23
2022-12-01T22:12:46.483Z,17.83
2022-12-01T22:15:35.252Z,18.23
2022-12-01T22:18:06.227Z,16.37
2022-12-01T22:20:34.649Z,16.47
2022-12-01T22:23:06.610Z,16.80
2022-12-01T22:25:56.830Z,17.37
2022-12-01T22:28:53.826Z,17.10
2022-12-01T22:31:24.002Z,18.23
2022-12-01T22:34:02.722Z,18.60
2022-12-01T22:36:33.461Z,16.67
2022-12-01T22:39:03.860Z,17.87
2022-12-01T22:41:54.054Z,19.33
2022-12-01T22:44:24.691Z,18.50
2022-12-01T22:47:13.882Z,19.40
2022-12-01T22:49:43.464Z,17.60
2022-12-01T22:52:21.716Z,18.63
2022-12-01T22:54:52.307Z,17.83
2022-12-01T22:57:31.487Z,18.67
2022-12-01T23:00:16.811Z,18.70
2022-12-01T23:02:46.900Z,18.97
2022-12-01T23:05:24.098Z,18.03
2022-12-01T23:07:56.834Z,18.67
2022-12-01T23:10:27.859Z,18.33
2022-12-01T23:13:01.091Z,18.40
2022-12-01T23:15:53.280Z,17.33
2022-12-01T23:18:23.407Z,18.10
2022-12-01T23:20:54.332Z,17.67
2022-12-01T23:23:29.545Z,18.20
2022-12-01T23:26:00.323Z,17.77
2022-12-01T23:28:56.635Z,17.60
2022-12-01T23:31:51.194Z,18.47
2022-12-01T23:34:22.085Z,19.53
2022-12-01T23:36:51.858Z,19.60
2022-12-01T23:39:25.076Z,20.53
2022-12-01T23:42:13.807Z,19.80
2022-12-01T23:44:45.845Z,18.77
2022-12-01T23:47:21.833Z,20.73
2022-12-01T23:49:55.418Z,20.93
2022-12-01T23:52:24.435Z,20.67
2022-12-01T23:54:53.189Z,20.83
2022-12-01T23:57:25.007Z,22.40
2022-12-01T23:59:56.953Z,22.93
